sensor_id;sensor_type;location;lat;lon;timestamp;P1;durP1;ratioP1;P2;durP2;ratioP2
63900;SDS011;50538;53.482;10.294;2023-11-22T00:00:24;0.88;;;0.70;;
63900;SDS011;50538;53.482;10.294;2023-11-22T00:10:24;1.33;;;0.60;;
63900;SDS011;50538;53.482;10.294;2023-11-22T00:20:24;0.30;;;0.10;;
63900;SDS011;50538;53.482;10.294;2023-11-22T00:30:25;0.95;;;0.43;;
63900;SDS011;50538;53.482;10.294;2023-11-22T00:40:25;0.35;;;0.25;;
63900;SDS011;50538;53.482;10.294;2023-11-22T00:50:25;1.00;;;0.32;;
63900;SDS011;50538;53.482;10.294;2023-11-22T01:00:26;0.88;;;0.45;;
63900;SDS011;50538;53.482;10.294;2023-11-22T01:10:26;0.95;;;0.60;;
63900;SDS011;50538;53.482;10.294;2023-11-22T01:20:27;0.13;;;0.13;;
63900;SDS011;50538;53.482;10.294;2023-11-22T01:30:27;0.60;;;0.25;;
63900;SDS011;50538;53.482;10.294;2023-11-22T01:40:28;0.20;;;0.20;;
63900;SDS011;50538;53.482;10.294;2023-11-22T01:50:29;1.05;;;0.80;;
63900;SDS011;50538;53.482;10.294;2023-11-22T02:00:36;0.13;;;0.13;;
63900;SDS011;50538;53.482;10.294;2023-11-22T02:10:42;0.70;;;0.30;;
63900;SDS011;50538;53.482;10.294;2023-11-22T02:20:44;0.30;;;0.28;;
63900;SDS011;50538;53.482;10.294;2023-11-22T02:30:44;0.77;;;0.20;;
63900;SDS011;50538;53.482;10.294;2023-11-22T02:40:45;0.68;;;0.40;;
63900;SDS011;50538;53.482;10.294;2023-11-22T02:50:47;0.43;;;0.20;;
63900;SDS011;50538;53.482;10.294;2023-11-22T03:00:49;0.40;;;0.20;;
63900;SDS011;50538;53.482;10.294;2023-11-22T03:10:49;0.28;;;0.28;;
63900;SDS011;50538;53.482;10.294;2023-11-22T03:20:51;0.57;;;0.25;;
63900;SDS011;50538;53.482;10.294;2023-11-22T03:30:54;0.65;;;0.35;;
63900;SDS011;50538;53.482;10.294;2023-11-22T03:40:54;1.05;;;0.50;;
63900;SDS011;50538;53.482;10.294;2023-11-22T03:50:54;0.25;;;0.13;;
63900;SDS011;50538;53.482;10.294;2023-11-22T04:00:55;0.70;;;0.45;;
63900;SDS011;50538;53.482;10.294;2023-11-22T04:10:55;0.40;;;0.25;;
63900;SDS011;50538;53.482;10.294;2023-11-22T04:20:56;0.70;;;0.30;;
63900;SDS011;50538;53.482;10.294;2023-11-22T04:30:58;1.40;;;0.32;;
63900;SDS011;50538;53.482;10.294;2023-11-22T04:40:58;0.60;;;0.22;;
63900;SDS011;50538;53.482;10.294;2023-11-22T04:50:59;0.25;;;0.20;;
63900;SDS011;50538;53.482;10.294;2023-11-22T05:00:59;0.73;;;0.32;;
63900;SDS011;50538;53.482;10.294;2023-11-22T05:11:01;0.43;;;0.15;;
63900;SDS011;50538;53.482;10.294;2023-11-22T05:21:03;0.65;;;0.15;;
63900;SDS011;50538;53.482;10.294;2023-11-22T05:31:04;0.93;;;0.45;;
63900;SDS011;50538;53.482;10.294;2023-11-22T05:41:05;0.80;;;0.65;;
63900;SDS011;50538;53.482;10.294;2023-11-22T05:51:08;0.70;;;0.38;;
63900;SDS011;50538;53.482;10.294;2023-11-22T06:01:08;1.17;;;0.50;;
63900;SDS011;50538;53.482;10.294;2023-11-22T06:11:09;0.40;;;0.27;;
63900;SDS011;50538;53.482;10.294;2023-11-22T06:32:10;1.65;;;0.10;;
63900;SDS011;50538;53.482;10.294;2023-11-22T06:42:11;1.33;;;0.32;;
63900;SDS011;50538;53.482;10.294;2023-11-22T06:52:13;0.50;;;0.40;;
63900;SDS011;50538;53.482;10.294;2023-11-22T07:02:13;0.75;;;0.40;;
63900;SDS011;50538;53.482;10.294;2023-11-22T07:12:14;0.70;;;0.40;;
63900;SDS011;50538;53.482;10.294;2023-11-22T07:22:17;0.43;;;0.38;;
63900;SDS011;50538;53.482;10.294;2023-11-22T07:32:19;0.10;;;0.10;;
63900;SDS011;50538;53.482;10.294;2023-11-22T07:42:23;0.68;;;0.50;;
63900;SDS011;50538;53.482;10.294;2023-11-22T07:52:24;2.75;;;1.10;;
63900;SDS011;50538;53.482;10.294;2023-11-22T08:02:29;1.25;;;0.52;;
63900;SDS011;50538;53.482;10.294;2023-11-22T08:12:31;1.73;;;0.98;;
63900;SDS011;50538;53.482;10.294;2023-11-22T08:22:33;1.00;;;0.40;;
63900;SDS011;50538;53.482;10.294;2023-11-22T08:32:35;1.30;;;0.80;;
63900;SDS011;50538;53.482;10.294;2023-11-22T08:42:35;2.70;;;0.77;;
63900;SDS011;50538;53.482;10.294;2023-11-22T08:52:37;1.77;;;0.68;;
63900;SDS011;50538;53.482;10.294;2023-11-22T09:02:39;1.65;;;0.57;;
63900;SDS011;50538;53.482;10.294;2023-11-22T09:12:41;2.08;;;0.90;;
63900;SDS011;50538;53.482;10.294;2023-11-22T09:22:42;0.93;;;0.47;;
63900;SDS011;50538;53.482;10.294;2023-11-22T09:32:47;2.90;;;0.83;;
63900;SDS011;50538;53.482;10.294;2023-11-22T09:42:49;2.15;;;1.10;;
63900;SDS011;50538;53.482;10.294;2023-11-22T09:52:52;3.03;;;1.65;;
63900;SDS011;50538;53.482;10.294;2023-11-22T10:02:59;3.13;;;1.27;;
63900;SDS011;50538;53.482;10.294;2023-11-22T10:12:59;4.38;;;0.95;;
63900;SDS011;50538;53.482;10.294;2023-11-22T10:23:01;3.30;;;1.50;;
63900;SDS011;50538;53.482;10.294;2023-11-22T10:33:02;3.55;;;1.38;;
63900;SDS011;50538;53.482;10.294;2023-11-22T10:43:03;4.05;;;1.80;;
63900;SDS011;50538;53.482;10.294;2023-11-22T10:53:09;2.50;;;1.10;;
63900;SDS011;50538;53.482;10.294;2023-11-22T11:03:14;2.60;;;1.40;;
63900;SDS011;50538;53.482;10.294;2023-11-22T11:13:17;3.25;;;1.92;;
63900;SDS011;50538;53.482;10.294;2023-11-22T11:23:24;2.25;;;1.20;;
63900;SDS011;50538;53.482;10.294;2023-11-22T11:33:27;2.70;;;1.13;;
63900;SDS011;50538;53.482;10.294;2023-11-22T11:43:43;1.90;;;1.00;;
63900;SDS011;50538;53.482;10.294;2023-11-22T11:53:48;1.48;;;0.55;;
63900;SDS011;50538;53.482;10.294;2023-11-22T12:03:49;2.92;;;0.90;;
63900;SDS011;50538;53.482;10.294;2023-11-22T12:13:49;1.90;;;0.93;;
63900;SDS011;50538;53.482;10.294;2023-11-22T12:23:52;2.13;;;0.75;;
63900;SDS011;50538;53.482;10.294;2023-11-22T12:33:54;1.67;;;0.85;;
63900;SDS011;50538;53.482;10.294;2023-11-22T12:44:07;2.13;;;1.05;;
63900;SDS011;50538;53.482;10.294;2023-11-22T12:54:08;3.70;;;0.90;;
63900;SDS011;50538;53.482;10.294;2023-11-22T13:04:10;1.73;;;0.73;;
63900;SDS011;50538;53.482;10.294;2023-11-22T13:14:14;2.22;;;0.85;;
63900;SDS011;50538;53.482;10.294;2023-11-22T13:24:16;1.55;;;1.00;;
63900;SDS011;50538;53.482;10.294;2023-11-22T13:34:18;2.05;;;0.75;;
63900;SDS011;50538;53.482;10.294;2023-11-22T13:44:18;2.03;;;0.80;;
63900;SDS011;50538;53.482;10.294;2023-11-22T13:54:19;1.83;;;0.70;;
63900;SDS011;50538;53.482;10.294;2023-11-22T14:04:19;3.90;;;0.98;;
63900;SDS011;50538;53.482;10.294;2023-11-22T14:14:19;1.17;;;0.63;;
63900;SDS011;50538;53.482;10.294;2023-11-22T14:24:20;1.30;;;0.70;;
63900;SDS011;50538;53.482;10.294;2023-11-22T14:34:20;0.90;;;0.50;;
63900;SDS011;50538;53.482;10.294;2023-11-22T14:44:21;2.03;;;0.80;;
63900;SDS011;50538;53.482;10.294;2023-11-22T14:54:21;1.23;;;0.55;;
63900;SDS011;50538;53.482;10.294;2023-11-22T15:04:22;0.60;;;0.47;;
63900;SDS011;50538;53.482;10.294;2023-11-22T15:14:24;1.33;;;0.50;;
63900;SDS011;50538;53.482;10.294;2023-11-22T15:24:34;1.23;;;0.70;;
63900;SDS011;50538;53.482;10.294;2023-11-22T16:30:24;1.73;;;1.02;;
63900;SDS011;50538;53.482;10.294;2023-11-22T16:51:41;2.35;;;1.25;;
63900;SDS011;50538;53.482;10.294;2023-11-22T17:01:44;2.25;;;0.68;;
63900;SDS011;50538;53.482;10.294;2023-11-22T17:11:44;2.95;;;1.10;;
63900;SDS011;50538;53.482;10.294;2023-11-22T17:21:45;1.38;;;0.40;;
63900;SDS011;50538;53.482;10.294;2023-11-22T17:31:45;2.38;;;0.95;;
63900;SDS011;50538;53.482;10.294;2023-11-22T17:41:46;1.65;;;0.90;;
63900;SDS011;50538;53.482;10.294;2023-11-22T17:51:46;2.38;;;1.40;;
63900;SDS011;50538;53.482;10.294;2023-11-22T18:12:32;3.00;;;1.10;;
63900;SDS011;50538;53.482;10.294;2023-11-22T18:23:02;1.77;;;0.75;;
63900;SDS011;50538;53.482;10.294;2023-11-22T18:33:03;4.03;;;1.17;;
63900;SDS011;50538;53.482;10.294;2023-11-22T18:43:04;4.60;;;1.90;;
63900;SDS011;50538;53.482;10.294;2023-11-22T18:53:06;5.13;;;1.50;;
63900;SDS011;50538;53.482;10.294;2023-11-22T19:03:07;4.68;;;1.40;;
63900;SDS011;50538;53.482;10.294;2023-11-22T19:13:11;6.22;;;1.58;;
63900;SDS011;50538;53.482;10.294;2023-11-22T19:23:12;3.53;;;1.50;;
63900;SDS011;50538;53.482;10.294;2023-11-22T19:33:12;4.13;;;1.33;;
63900;SDS011;50538;53.482;10.294;2023-11-22T19:43:14;3.38;;;1.63;;
63900;SDS011;50538;53.482;10.294;2023-11-22T19:53:15;1.85;;;0.93;;
63900;SDS011;50538;53.482;10.294;2023-11-22T20:03:16;2.97;;;1.20;;
63900;SDS011;50538;53.482;10.294;2023-11-22T20:13:17;2.65;;;1.35;;
63900;SDS011;50538;53.482;10.294;2023-11-22T20:23:17;8.60;;;1.42;;
63900;SDS011;50538;53.482;10.294;2023-11-22T20:33:19;3.78;;;1.67;;
63900;SDS011;50538;53.482;10.294;2023-11-22T20:43:19;3.25;;;1.30;;
63900;SDS011;50538;53.482;10.294;2023-11-22T20:53:20;4.72;;;1.80;;
63900;SDS011;50538;53.482;10.294;2023-11-22T21:03:20;5.18;;;1.83;;
63900;SDS011;50538;53.482;10.294;2023-11-22T21:13:21;3.63;;;1.45;;
63900;SDS011;50538;53.482;10.294;2023-11-22T21:23:21;3.03;;;1.50;;
63900;SDS011;50538;53.482;10.294;2023-11-22T21:33:22;4.80;;;1.70;;
63900;SDS011;50538;53.482;10.294;2023-11-22T21:43:22;3.13;;;1.52;;
63900;SDS011;50538;53.482;10.294;2023-11-22T21:53:24;3.40;;;1.40;;
63900;SDS011;50538;53.482;10.294;2023-11-22T22:03:25;4.22;;;1.58;;
63900;SDS011;50538;53.482;10.294;2023-11-22T22:13:25;4.68;;;1.67;;
63900;SDS011;50538;53.482;10.294;2023-11-22T22:23:25;4.72;;;2.45;;
63900;SDS011;50538;53.482;10.294;2023-11-22T22:33:27;8.38;;;2.88;;
63900;SDS011;50538;53.482;10.294;2023-11-22T22:43:28;5.88;;;2.60;;
63900;SDS011;50538;53.482;10.294;2023-11-22T22:53:28;5.95;;;2.90;;
63900;SDS011;50538;53.482;10.294;2023-11-22T23:03:28;7.75;;;2.60;;
63900;SDS011;50538;53.482;10.294;2023-11-22T23:13:32;4.65;;;2.25;;
63900;SDS011;50538;53.482;10.294;2023-11-22T23:23:33;8.10;;;2.85;;
63900;SDS011;50538;53.482;10.294;2023-11-22T23:33:34;10.05;;;3.08;;
63900;SDS011;50538;53.482;10.294;2023-11-22T23:43:37;4.82;;;2.38;;
63900;SDS011;50538;53.482;10.294;2023-11-22T23:53:38;9.98;;;3.08;;
